Time;durP1;ratioP1;P1;durP2;ratioP2;P2;SDS_P1;SDS_P2;PMS_P1;PMS_P2;Temp;Humidity;BMP_temperature;BMP_pressure;BME280_temperature;BME280_humidity;BME280_pressure;Samples;Min_cycle;Max_cycle;Signal;HPM_P1;HPM_P2
2023/03/20 00:01:16;;;;;;;4.60;1.20;;;10.30;99.90;;;;;;5052338;28;20427;-55
2023/03/20 00:03:42;;;;;;;6.30;1.00;;;10.30;99.90;;;;;;5052187;28;20491;-55
2023/03/20 00:06:15;;;;;;;5.40;1.17;;;10.30;99.90;;;;;;5052459;28;20874;-58
2023/03/20 00:08:41;;;;;;;5.00;1.30;;;10.30;99.90;;;;;;5052761;28;20381;-56
2023/03/20 00:11:27;;;;;;;5.15;1.08;;;10.20;1.00;;;;;;5052554;28;20377;-56
2023/03/20 00:13:58;;;;;;;4.45;1.10;;;10.30;1.00;;;;;;5052552;28;20389;-56
2023/03/20 00:16:29;;;;;;;6.50;1.30;;;10.40;1.00;;;;;;5051438;28;20405;-56
2023/03/20 00:18:55;;;;;;;5.07;1.27;;;10.40;1.00;;;;;;5052656;28;20390;-56
2023/03/20 00:21:21;;;;;;;4.60;1.10;;;10.50;99.90;;;;;;5052014;28;20463;-56
2023/03/20 00:23:46;;;;;;;6.88;1.30;;;10.50;99.90;;;;;;5052339;28;20473;-56
2023/03/20 00:26:19;;;;;;;4.70;1.00;;;10.50;99.90;;;;;;5051504;28;20917;-61
2023/03/20 00:28:47;;;;;;;4.53;0.90;;;10.60;99.90;;;;;;5051854;28;20452;-56
2023/03/20 00:31:27;;;;;;;4.20;1.00;;;10.50;99.90;;;;;;5050972;28;20389;-60
2023/03/20 00:33:59;;;;;;;4.33;1.10;;;10.50;99.90;;;;;;5052125;28;20389;-56
2023/03/20 00:36:25;;;;;;;4.30;0.98;;;10.40;99.90;;;;;;5051727;28;20978;-56
2023/03/20 00:38:51;;;;;;;4.65;1.15;;;10.30;99.90;;;;;;5051875;28;20460;-55
2023/03/20 00:41:26;;;;;;;4.80;1.30;;;10.40;99.90;;;;;;5050812;28;20388;-58
2023/03/20 00:43:57;;;;;;;5.40;1.10;;;10.40;1.00;;;;;;5051700;28;20389;-55
2023/03/20 00:46:23;;;;;;;5.03;1.20;;;10.40;1.00;;;;;;5050341;28;20403;-55
2023/03/20 00:48:49;;;;;;;5.32;1.08;;;10.50;1.00;;;;;;5052015;28;20388;-56
2023/03/20 00:51:15;;;;;;;5.68;1.30;;;10.50;1.00;;;;;;5051238;28;20384;-56
2023/03/20 00:53:41;;;;;;;5.30;1.10;;;10.50;99.90;;;;;;5051675;28;20373;-56
2023/03/20 00:56:32;;;;;;;4.90;1.10;;;10.50;99.90;;;;;;5051562;28;20889;-55
2023/03/20 00:58:59;;;;;;;4.68;1.23;;;10.50;99.90;;;;;;5051227;28;20423;-55
2023/03/20 01:01:25;;;;;;;5.57;1.60;;;10.50;99.90;;;;;;5050971;28;20381;-56
2023/03/20 01:03:50;;;;;;;4.73;1.07;;;10.40;99.90;;;;;;5051825;28;20803;-56
2023/03/20 01:06:17;;;;;;;4.60;1.10;;;10.50;99.90;;;;;;5050858;28;20415;-55
2023/03/20 01:08:44;;;;;;;4.40;1.10;;;10.50;99.90;;;;;;5051425;28;20469;-55
2023/03/20 01:11:11;;;;;;;4.90;1.40;;;10.40;99.90;;;;;;5050973;28;20946;-60
2023/03/20 01:13:39;;;;;;;5.45;1.55;;;10.40;99.90;;;;;;5051332;28;20381;-56
2023/03/20 01:16:05;;;;;;;4.63;1.20;;;10.40;99.90;;;;;;5051413;28;20401;-55
2023/03/20 01:18:30;;;;;;;5.40;1.60;;;10.40;99.90;;;;;;5050869;28;20385;-57
2023/03/20 01:20:56;;;;;;;5.13;1.52;;;10.40;99.90;;;;;;5051432;28;20446;-56
2023/03/20 01:23:22;;;;;;;5.30;1.70;;;10.40;99.90;;;;;;5050369;28;20396;-55
2023/03/20 01:25:48;;;;;;;5.60;2.10;;;10.40;99.90;;;;;;5051153;28;20382;-56
2023/03/20 01:28:19;;;;;;;5.50;2.03;;;10.50;99.90;;;;;;5050137;28;20409;-61
2023/03/20 01:30:46;;;;;;;7.30;2.15;;;10.50;99.90;;;;;;5051012;28;20461;-56
2023/03/20 01:33:17;;;;;;;6.07;1.80;;;10.50;99.90;;;;;;5050944;28;20411;-61
2023/03/20 01:35:44;;;;;;;5.82;1.90;;;10.40;99.90;;;;;;5050389;28;20404;-56
2023/03/20 01:38:20;;;;;;;5.70;1.77;;;10.50;99.90;;;;;;5050868;28;20401;-56
2023/03/20 01:41:04;;;;;;;7.10;2.58;;;10.50;99.90;;;;;;5049710;28;20460;-55
2023/03/20 01:43:34;;;;;;;5.38;1.90;;;10.40;99.90;;;;;;5050118;28;20437;-56
2023/03/20 01:46:23;;;;;;;6.00;2.40;;;10.40;99.90;;;;;;5050521;28;20386;-56
2023/03/20 01:48:48;;;;;;;5.43;1.80;;;10.30;99.90;;;;;;5050747;28;20511;-56
2023/03/20 01:51:15;;;;;;;5.30;1.90;;;10.30;99.90;;;;;;5050100;28;20845;-61
2023/03/20 01:53:42;;;;;;;5.28;1.90;;;10.20;99.90;;;;;;5050427;28;20726;-56
2023/03/20 01:56:07;;;;;;;6.50;2.05;;;10.20;99.90;;;;;;5050558;28;20420;-56
2023/03/20 01:58:40;;;;;;;5.93;2.07;;;10.20;99.90;;;;;;5048648;28;20401;-56
2023/03/20 02:01:10;;;;;;;5.60;2.13;;;10.30;99.90;;;;;;5050919;28;20384;-55
2023/03/20 02:03:37;;;;;;;6.25;2.03;;;10.20;99.90;;;;;;5050180;28;20392;-55
2023/03/20 02:06:03;;;;;;;5.60;1.83;;;10.20;99.90;;;;;;5050363;28;20384;-56
2023/03/20 02:08:31;;;;;;;5.43;2.00;;;10.10;99.90;;;;;;5049660;28;20397;-56
2023/03/20 02:10:59;;;;;;;5.93;2.00;;;10.80;99.90;;;;;;5050354;28;20393;-56
2023/03/20 02:13:27;;;;;;;7.45;2.03;;;10.10;99.90;;;;;;5049203;28;20381;-56
2023/03/20 02:16:01;;;;;;;6.70;2.03;;;11.30;99.90;;;;;;5050013;28;20437;-57
2023/03/20 02:18:27;;;;;;;6.20;2.30;;;10.00;1.00;;;;;;5031534;28;20488;-55
2023/03/20 02:21:14;;;;;;;6.47;2.20;;;10.00;99.90;;;;;;5050099;28;20862;-56
2023/03/20 02:23:40;;;;;;;5.70;2.00;;;10.00;1.00;;;;;;5031885;28;20946;-55
2023/03/20 02:26:24;;;;;;;5.38;1.90;;;10.00;1.00;;;;;;5050309;28;20461;-56
2023/03/20 02:29:08;;;;;;;6.68;2.30;;;10.10;99.90;;;;;;5049771;28;20405;-56
2023/03/20 02:31:59;;;;;;;6.10;2.10;;;10.10;99.90;;;;;;5049296;28;20386;-56
2023/03/20 02:34:47;;;;;;;7.80;2.20;;;10.10;99.90;;;;;;5049083;28;20412;-56
2023/03/20 02:37:50;;;;;;;5.95;2.47;;;10.10;99.90;;;;;;5049281;28;20389;-61
2023/03/20 02:40:39;;;;;;;5.43;2.00;;;10.10;99.90;;;;;;5049423;28;20386;-61
2023/03/20 02:43:21;;;;;;;6.60;1.70;;;10.10;99.90;;;;;;5049757;28;20420;-56
2023/03/20 02:45:55;;;;;;;5.75;2.00;;;10.10;99.90;;;;;;5050108;28;20867;-55
2023/03/20 02:48:29;;;;;;;5.50;2.10;;;10.00;99.90;;;;;;5048498;28;20750;-56
2023/03/20 02:51:03;;;;;;;5.85;2.30;;;10.10;99.90;;;;;;5049789;28;20870;-57
2023/03/20 02:53:53;;;;;;;5.93;1.80;;;10.10;99.90;;;;;;5049148;28;20377;-56
2023/03/20 02:56:43;;;;;;;5.85;2.10;;;10.20;99.90;;;;;;5048642;28;20401;-56
2023/03/20 02:59:26;;;;;;;7.70;2.10;;;10.20;99.90;;;;;;5049457;28;20401;-58
2023/03/20 03:02:01;;;;;;;5.38;1.70;;;10.30;99.90;;;;;;5049658;28;20393;-56
2023/03/20 03:04:31;;;;;;;5.55;2.08;;;10.20;99.90;;;;;;5048667;28;20381;-56
2023/03/20 03:06:58;;;;;;;5.95;2.10;;;10.10;99.90;;;;;;5049543;28;20473;-56
2023/03/20 03:09:57;;;;;;;6.10;2.05;;;10.00;99.90;;;;;;5049775;28;20377;-56
2023/03/20 03:12:30;;;;;;;6.00;2.30;;;11.00;99.90;;;;;;5048828;28;20417;-55
2023/03/20 03:15:00;;;;;;;6.05;2.13;;;10.00;99.90;;;;;;5053238;28;20803;-55
2023/03/20 03:17:29;;;;;;;7.38;2.10;;;10.00;99.90;;;;;;5052754;28;20385;-56
2023/03/20 03:20:01;;;;;;;9.68;2.00;;;9.90;99.90;;;;;;5053256;28;20388;-58
2023/03/20 03:22:27;;;;;;;5.90;2.15;;;9.90;99.90;;;;;;5052754;28;20409;-55
2023/03/20 03:24:53;;;;;;;7.35;2.58;;;9.80;99.90;;;;;;5052871;28;20802;-56
2023/03/20 03:27:28;;;;;;;5.88;2.40;;;9.80;99.90;;;;;;5052596;28;20382;-56
2023/03/20 03:30:19;;;;;;;5.30;1.80;;;9.80;99.90;;;;;;5053021;28;20402;-56
2023/03/20 03:33:22;;;;;;;7.30;1.77;;;9.80;99.90;;;;;;5052127;28;20790;-56
2023/03/20 03:35:50;;;;;;;5.50;1.70;;;9.80;99.90;;;;;;5011506;28;20502;-55
2023/03/20 03:38:28;;;;;;;5.35;1.60;;;9.70;99.90;;;;;;5052371;28;20382;-61
2023/03/20 03:41:37;;;;;;;5.70;1.90;;;9.70;99.90;;;;;;5052771;28;20370;-56
2023/03/20 03:44:19;;;;;;;5.13;1.58;;;9.70;99.90;;;;;;5052017;28;20467;-56
2023/03/20 03:46:49;;;;;;;8.80;1.50;;;9.70;99.90;;;;;;5053176;28;20415;-55
2023/03/20 03:49:20;;;;;;;5.28;1.77;;;9.70;99.90;;;;;;5052601;28;20477;-61
2023/03/20 03:51:50;;;;;;;4.68;1.30;;;9.70;99.90;;;;;;5053109;28;20365;-55
2023/03/20 03:54:29;;;;;;;4.50;1.30;;;9.70;99.90;;;;;;5052192;28;20370;-56
2023/03/20 03:56:57;;;;;;;4.60;1.27;;;9.60;99.90;;;;;;5052596;28;20409;-56
2023/03/20 03:59:53;;;;;;;4.50;1.20;;;9.70;99.90;;;;;;5052183;28;20385;-55
2023/03/20 04:02:21;;;;;;;5.20;1.50;;;9.70;99.90;;;;;;5034773;28;20397;-56
2023/03/20 04:04:50;;;;;;;4.72;1.27;;;9.60;99.90;;;;;;5052310;28;20865;-55
2023/03/20 04:07:16;;;;;;;4.67;1.37;;;9.60;99.90;;;;;;5052188;28;20382;-55
2023/03/20 04:09:41;;;;;;;5.47;1.60;;;9.70;99.90;;;;;;5052376;28;20385;-55
2023/03/20 04:12:39;;;;;;;4.60;1.10;;;9.70;99.90;;;;;;5051985;28;20431;-56
2023/03/20 04:15:05;;;;;;;4.75;1.23;;;9.80;99.90;;;;;;5052602;28;20444;-56
2023/03/20 04:17:32;;;;;;;4.90;1.30;;;9.70;99.90;;;;;;5051407;28;20388;-56
2023/03/20 04:19:57;;;;;;;4.80;1.20;;;9.70;99.90;;;;;;5052339;28;20882;-56
2023/03/20 04:22:23;;;;;;;4.80;1.20;;;9.60;99.90;;;;;;5050349;28;20469;-55
2023/03/20 04:24:50;;;;;;;5.25;1.30;;;9.60;99.90;;;;;;5052004;28;20381;-57
2023/03/20 04:27:16;;;;;;;6.50;1.30;;;9.70;99.90;;;;;;5051832;28;20398;-62
2023/03/20 04:29:42;;;;;;;5.15;1.13;;;9.70;99.90;;;;;;5051923;28;20406;-56
2023/03/20 04:32:07;;;;;;;4.38;1.27;;;9.70;99.90;;;;;;5050817;28;20890;-58
2023/03/20 04:34:33;;;;;;;4.55;1.15;;;9.70;99.90;;;;;;5051184;28;20455;-56
2023/03/20 04:37:00;;;;;;;4.95;1.20;;;9.70;96.20;;;;;;5051843;28;20769;-56
2023/03/20 04:39:26;;;;;;;4.93;1.10;;;9.70;99.90;;;;;;5051800;28;20378;-57
2023/03/20 04:41:51;;;;;;;4.50;1.10;;;9.60;99.90;;;;;;5045660;28;20462;-56
2023/03/20 04:44:17;;;;;;;4.40;1.10;;;9.70;99.90;;;;;;5033609;28;20788;-56
2023/03/20 04:46:42;;;;;;;4.32;1.00;;;9.70;58.90;;;;;;5031974;28;20787;-56
2023/03/20 04:49:08;;;;;;;5.10;1.10;;;9.70;99.80;;;;;;5032324;28;20395;-56
2023/03/20 04:51:33;;;;;;;7.18;1.30;;;9.70;1.00;;;;;;5031154;28;20387;-56
2023/03/20 04:53:59;;;;;;;4.53;0.90;;;9.70;1.00;;;;;;5032347;28;20729;-56
2023/03/20 04:56:25;;;;;;;4.73;1.20;;;9.70;1.00;;;;;;5030815;28;20415;-56
2023/03/20 04:58:50;;;;;;;4.22;0.90;;;9.70;1.00;;;;;;5032081;28;20405;-56
2023/03/20 05:01:16;;;;;;;5.00;1.10;;;9.60;92.80;;;;;;5031474;28;20387;-60
2023/03/20 05:03:41;;;;;;;5.50;1.30;;;9.60;99.90;;;;;;5031306;28;20387;-55
2023/03/20 05:06:08;;;;;;;4.90;1.00;;;9.50;96.70;;;;;;5031795;28;20395;-56
2023/03/20 05:08:33;;;;;;;6.80;1.20;;;9.50;99.90;;;;;;5031103;28;20525;-56
2023/03/20 05:10:59;;;;;;;6.17;1.70;;;9.60;99.90;;;;;;5031899;28;20845;-56
2023/03/20 05:13:24;;;;;;;5.30;1.20;;;9.60;99.90;;;;;;5030763;28;20437;-56
2023/03/20 05:15:51;;;;;;;4.60;1.20;;;9.60;99.90;;;;;;5031540;28;20441;-55
2023/03/20 05:18:16;;;;;;;4.67;1.20;;;9.60;99.90;;;;;;5013302;28;20398;-61
2023/03/20 05:20:42;;;;;;;5.32;1.50;;;9.60;99.90;;;;;;5030835;28;20383;-55
2023/03/20 05:23:08;;;;;;;5.13;1.60;;;9.60;99.90;;;;;;5031494;28;20401;-56
2023/03/20 05:25:33;;;;;;;5.50;1.80;;;9.50;99.90;;;;;;5041550;28;20393;-55
2023/03/20 05:27:59;;;;;;;5.57;1.40;;;9.70;99.90;;;;;;5031371;28;20495;-56
2023/03/20 05:30:24;;;;;;;4.80;1.50;;;9.70;99.90;;;;;;5038017;28;20384;-55
2023/03/20 05:32:51;;;;;;;4.60;1.23;;;9.70;99.90;;;;;;5060241;28;20984;-55
2023/03/20 05:35:17;;;;;;;5.38;1.48;;;11.00;99.90;;;;;;5056696;28;20409;-61
2023/03/20 05:37:45;;;;;;;5.13;1.30;;;9.60;99.90;;;;;;5043920;28;20501;-55
2023/03/20 05:40:13;;;;;;;4.90;1.33;;;9.60;99.90;;;;;;5035609;28;20927;-55
2023/03/20 05:42:39;;;;;;;5.78;1.50;;;9.70;99.90;;;;;;5030185;28;20856;-55
2023/03/20 05:45:06;;;;;;;4.50;1.10;;;9.70;99.90;;;;;;5030824;28;20390;-55
2023/03/20 05:47:31;;;;;;;4.60;1.20;;;9.80;99.90;;;;;;5029953;28;20378;-55
2023/03/20 05:49:57;;;;;;;5.93;1.23;;;9.80;99.90;;;;;;5029389;28;20447;-55
2023/03/20 05:52:23;;;;;;;4.70;0.90;;;9.70;24.60;;;;;;5030150;28;20379;-55
2023/03/20 05:54:49;;;;;;;5.30;1.30;;;9.80;28.30;;;;;;5030268;28;20398;-55
2023/03/20 05:57:16;;;;;;;4.45;1.00;;;9.90;1.00;;;;;;5030535;28;20859;-59
2023/03/20 05:59:42;;;;;;;4.50;0.83;;;10.00;1.00;;;;;;5030913;28;20684;-55
2023/03/20 06:02:09;;;;;;;4.25;0.82;;;10.10;1.00;;;;;;5030331;28;20919;-56
2023/03/20 06:04:36;;;;;;;4.78;1.15;;;10.10;1.00;;;;;;5029675;28;20392;-56
2023/03/20 06:07:02;;;;;;;4.63;1.10;;;10.10;99.90;;;;;;5041182;28;20828;-55
2023/03/20 06:09:28;;;;;;;4.45;1.08;;;10.10;1.00;;;;;;5051725;28;20397;-56
2023/03/20 06:11:55;;;;;;;6.87;1.43;;;10.10;1.00;;;;;;5049389;28;20392;-59
2023/03/20 06:14:20;;;;;;;4.72;1.17;;;10.20;1.00;;;;;;5049605;28;20400;-60
2023/03/20 06:16:46;;;;;;;4.90;1.00;;;10.30;1.00;;;;;;5049840;28;20406;-61
2023/03/20 06:19:11;;;;;;;5.50;1.30;;;10.40;1.00;;;;;;5057217;28;20398;-60
2023/03/20 06:21:37;;;;;;;4.60;1.30;;;10.40;1.00;;;;;;5059554;28;20372;-59
2023/03/20 06:24:03;;;;;;;5.37;0.90;;;10.50;1.00;;;;;;5053056;28;20394;-60
2023/03/20 06:26:28;;;;;;;5.40;1.20;;;10.40;1.00;;;;;;5058714;28;20388;-58
2023/03/20 06:28:54;;;;;;;4.80;1.10;;;10.50;1.00;;;;;;5060036;28;20405;-57
2023/03/20 06:31:20;;;;;;;4.43;1.00;;;10.50;99.90;;;;;;5058230;28;20514;-60
2023/03/20 06:33:46;;;;;;;4.60;1.10;;;10.60;56.10;;;;;;5050657;28;20490;-55
2023/03/20 06:36:11;;;;;;;4.60;1.00;;;10.70;99.90;;;;;;5046096;28;20409;-55
2023/03/20 06:38:37;;;;;;;4.93;1.00;;;10.70;99.90;;;;;;5049051;28;20426;-55
2023/03/20 06:41:03;;;;;;;4.75;0.82;;;10.70;1.00;;;;;;5049991;28;20543;-60
2023/03/20 06:43:28;;;;;;;4.80;1.00;;;10.60;1.00;;;;;;5048742;28;20387;-55
2023/03/20 06:45:54;;;;;;;4.60;1.30;;;10.80;99.90;;;;;;5049701;28;20409;-55
2023/03/20 06:48:23;;;;;;;4.57;0.90;;;10.70;99.90;;;;;;5049098;28;20716;-58
2023/03/20 06:50:49;;;;;;;5.25;1.30;;;10.60;1.00;;;;;;5048192;28;20377;-56
2023/03/20 06:53:15;;;;;;;4.70;1.10;;;10.80;1.00;;;;;;5048301;28;20721;-56
2023/03/20 06:55:42;;;;;;;4.75;1.00;;;11.10;99.90;;;;;;5048744;28;20838;-56
2023/03/20 06:58:08;;;;;;;4.40;0.93;;;11.10;11.90;;;;;;5049597;28;20398;-65
2023/03/20 07:00:33;;;;;;;4.90;1.00;;;11.10;99.90;;;;;;5048816;28;20377;-56
2023/03/20 07:02:59;;;;;;;6.17;1.30;;;11.00;24.20;;;;;;5050095;28;20393;-56
2023/03/20 07:05:25;;;;;;;10.63;1.50;;;11.20;99.90;;;;;;5042097;28;20818;-56
2023/03/20 07:07:50;;;;;;;5.85;1.45;;;11.30;99.90;;;;;;5049625;28;20441;-56
2023/03/20 07:10:16;;;;;;;4.73;0.90;;;11.50;99.90;;;;;;5049609;28;20443;-58
2023/03/20 07:12:42;;;;;;;4.90;1.00;;;11.70;99.90;;;;;;5048850;28;20476;-58
2023/03/20 07:15:10;;;;;;;5.20;0.90;;;11.60;1.00;;;;;;5049053;28;20417;-59
2023/03/20 07:17:36;;;;;;;4.68;1.00;;;11.50;99.90;;;;;;5048659;28;20393;-56
2023/03/20 07:20:02;;;;;;;4.95;1.10;;;11.40;1.00;;;;;;5049376;28;20814;-56
2023/03/20 07:22:30;;;;;;;5.00;0.90;;;11.60;1.00;;;;;;5048491;28;20841;-56
2023/03/20 07:24:56;;;;;;;5.82;1.08;;;11.40;99.90;;;;;;5049506;28;20854;-60
2023/03/20 07:27:22;;;;;;;5.45;1.20;;;11.40;1.00;;;;;;5048448;28;20400;-61
2023/03/20 07:29:48;;;;;;;5.70;1.20;;;11.40;1.00;;;;;;5030933;28;20417;-58
2023/03/20 07:32:14;;;;;;;5.70;1.20;;;11.30;29.10;;;;;;5049702;28;20385;-58
2023/03/20 07:34:39;;;;;;;4.80;1.20;;;11.40;99.90;;;;;;5048646;28;20443;-58
2023/03/20 07:37:06;;;;;;;7.97;1.10;;;11.40;1.00;;;;;;5049133;28;20381;-58
2023/03/20 07:39:31;;;;;;;5.10;1.13;;;11.50;29.30;;;;;;5048721;28;20389;-58
2023/03/20 07:41:58;;;;;;;4.23;0.83;;;11.50;1.00;;;;;;5049223;28;20392;-56
2023/03/20 07:44:24;;;;;;;4.70;1.13;;;11.50;58.10;;;;;;5048339;28;20393;-56
2023/03/20 07:46:50;;;;;;;6.90;1.20;;;11.70;1.00;;;;;;5049428;28;20443;-59
2023/03/20 07:49:17;;;;;;;5.67;1.00;;;11.70;1.00;;;;;;5049287;28;20451;-58
2023/03/20 07:51:43;;;;;;;5.50;1.50;;;11.60;1.00;;;;;;5030631;28;20401;-58
2023/03/20 07:54:09;;;;;;;5.00;1.40;;;11.80;1.00;;;;;;5049536;28;20378;-58
2023/03/20 07:56:34;;;;;;;5.75;1.25;;;11.90;1.00;;;;;;5050728;28;20409;-58
2023/03/20 07:59:00;;;;;;;5.20;1.25;;;12.10;99.90;;;;;;5052999;28;20400;-56
2023/03/20 08:01:26;;;;;;;4.87;1.20;;;12.10;99.90;;;;;;5052147;28;20835;-56
2023/03/20 08:03:51;;;;;;;5.03;1.17;;;12.40;99.90;;;;;;5052750;28;20760;-56
2023/03/20 08:06:17;;;;;;;5.35;1.17;;;12.40;1.00;;;;;;5052216;28;20389;-56
2023/03/20 08:08:43;;;;;;;5.70;1.20;;;12.00;1.00;;;;;;5052179;28;20389;-56
2023/03/20 08:11:10;;;;;;;4.72;1.20;;;12.00;1.00;;;;;;5052212;28;20389;-56
2023/03/20 08:13:36;;;;;;;5.40;1.27;;;11.90;1.00;;;;;;5051492;28;20535;-56
2023/03/20 08:16:02;;;;;;;6.83;1.40;;;11.80;1.00;;;;;;5052607;28;20926;-56
2023/03/20 08:18:28;;;;;;;5.18;1.30;;;11.80;1.00;;;;;;5051643;28;20527;-56
2023/03/20 08:20:54;;;;;;;4.72;1.33;;;11.90;1.00;;;;;;5052292;28;20551;-56
2023/03/20 08:23:20;;;;;;;5.00;1.20;;;11.80;1.00;;;;;;5051874;28;20738;-57
2023/03/20 08:25:50;;;;;;;6.03;1.45;;;11.80;1.00;;;;;;5052486;28;20378;-59
2023/03/20 08:28:16;;;;;;;5.20;1.17;;;12.00;1.00;;;;;;5052463;28;20412;-58
2023/03/20 08:30:42;;;;;;;4.70;1.20;;;12.10;1.00;;;;;;5051509;28;20496;-58
2023/03/20 08:33:08;;;;;;;5.60;1.40;;;12.10;1.00;;;;;;5052072;28;20496;-60
2023/03/20 08:35:34;;;;;;;5.30;1.20;;;12.30;1.00;;;;;;5051270;28;20504;-59
2023/03/20 08:38:00;;;;;;;5.15;1.30;;;12.40;1.00;;;;;;5052077;28;20617;-59
2023/03/20 08:40:26;;;;;;;4.90;1.10;;;12.50;1.00;;;;;;5052026;28;20373;-56
2023/03/20 08:42:52;;;;;;;5.22;1.20;;;12.60;99.90;;;;;;5051995;28;20385;-56
2023/03/20 08:45:17;;;;;;;5.70;1.50;;;12.80;99.90;;;;;;5052538;28;20459;-56
2023/03/20 08:47:47;;;;;;;6.53;1.10;;;13.00;99.90;;;;;;5051421;28;20385;-57
2023/03/20 08:50:12;;;;;;;6.10;1.20;;;13.50;99.90;;;;;;5052135;28;20435;-57
2023/03/20 08:52:42;;;;;;;5.97;1.60;;;14.20;99.90;;;;;;5050525;28;20399;-56
2023/03/20 08:55:12;;;;;;;5.63;1.40;;;15.10;1.80;;;;;;5051678;28;20507;-57
2023/03/20 08:57:39;;;;;;;5.10;1.40;;;16.60;1.00;;;;;;5050493;28;20835;-57
2023/03/20 09:00:06;;;;;;;6.57;1.80;;;18.80;1.00;;;;;;5051459;28;20416;-59
2023/03/20 09:02:32;;;;;;;8.15;2.08;;;21.10;99.90;;;;;;5051025;28;20669;-58
2023/03/20 09:04:59;;;;;;;6.72;1.85;;;22.40;99.90;;;;;;5051234;28;20925;-57
2023/03/20 09:07:24;;;;;;;7.20;2.35;;;22.60;99.90;;;;;;5050153;28;20855;-58
2023/03/20 09:09:50;;;;;;;5.80;2.40;;;22.10;99.90;;;;;;5051697;28;20381;-58
2023/03/20 09:12:16;;;;;;;5.70;2.20;;;21.60;99.90;;;;;;5050863;28;20393;-59
2023/03/20 09:14:41;;;;;;;5.90;2.50;;;21.60;99.90;;;;;;5050438;28;20451;-58
2023/03/20 09:17:08;;;;;;;6.10;2.20;;;20.60;99.90;;;;;;5051278;28;20866;-57
2023/03/20 09:19:36;;;;;;;5.80;2.00;;;19.80;99.90;;;;;;5050614;28;20414;-58
2023/03/20 09:22:02;;;;;;;6.50;2.83;;;19.00;99.90;;;;;;5051147;28;20383;-57
2023/03/20 09:24:28;;;;;;;5.97;2.15;;;18.00;99.90;;;;;;5050524;28;20488;-57
2023/03/20 09:26:54;;;;;;;6.28;1.95;;;17.40;99.90;;;;;;5050536;28;20913;-57
2023/03/20 09:29:19;;;;;;;6.00;1.90;;;17.50;99.90;;;;;;5050593;28;20673;-61
2023/03/20 09:31:45;;;;;;;6.90;2.03;;;17.40;99.90;;;;;;5032772;28;20866;-60
2023/03/20 09:34:11;;;;;;;6.35;2.10;;;18.10;99.90;;;;;;5050903;28;20473;-57
2023/03/20 09:36:36;;;;;;;6.80;2.20;;;18.50;99.90;;;;;;5049864;28;20802;-57
2023/03/20 09:39:03;;;;;;;5.80;2.03;;;19.00;99.90;;;;;;5050840;28;20408;-57
2023/03/20 09:41:35;;;;;;;6.40;2.30;;;19.00;99.90;;;;;;5050056;28;20386;-57
2023/03/20 09:44:35;;;;;;;7.45;2.00;;;18.90;99.90;;;;;;5050478;28;20390;-57
2023/03/20 09:47:42;;;;;;;6.82;2.60;;;19.50;99.90;;;;;;5032891;28;20715;-57
2023/03/20 09:50:29;;;;;;;8.07;2.33;;;19.40;99.90;;;;;;5036831;28;20404;-58
2023/03/20 09:52:58;;;;;;;6.97;2.20;;;18.80;99.90;;;;;;5051012;28;20389;-57
2023/03/20 09:55:32;;;;;;;8.13;2.38;;;18.60;99.90;;;;;;5049877;28;20797;-57
2023/03/20 09:58:21;;;;;;;7.10;2.27;;;17.80;99.90;;;;;;5050643;28;20397;-57
2023/03/20 10:00:47;;;;;;;6.85;2.47;;;17.40;99.90;;;;;;5048660;28;20397;-57
2023/03/20 10:03:37;;;;;;;7.73;2.70;;;17.10;99.90;;;;;;5050006;28;20747;-57
2023/03/20 10:06:06;;;;;;;7.10;2.33;;;17.20;99.90;;;;;;5050345;28;20459;-58
2023/03/20 10:08:37;;;;;;;8.32;2.58;;;16.90;99.90;;;;;;5049070;28;20397;-57
2023/03/20 10:11:09;;;;;;;6.57;2.00;;;16.80;99.90;;;;;;5050839;28;20377;-57
2023/03/20 10:13:56;;;;;;;6.43;2.37;;;16.40;99.90;;;;;;5049100;28;20830;-57
2023/03/20 10:16:40;;;;;;;8.05;2.75;;;16.30;99.90;;;;;;5050053;28;20547;-62
2023/03/20 10:19:29;;;;;;;6.70;2.30;;;16.00;99.90;;;;;;5049016;28;20381;-57
2023/03/20 10:22:16;;;;;;;6.97;2.40;;;15.50;99.90;;;;;;5050227;28;20847;-57
2023/03/20 10:24:48;;;;;;;8.85;3.08;;;14.70;99.90;;;;;;5049021;28;20411;-57
2023/03/20 10:27:42;;;;;;;9.32;2.72;;;14.50;99.90;;;;;;5049664;28;20401;-57
2023/03/20 10:30:32;;;;;;;9.00;3.88;;;14.30;99.90;;;;;;5049804;28;20432;-57
2023/03/20 10:33:23;;;;;;;10.02;3.42;;;14.10;99.90;;;;;;5049671;28;20397;-57
2023/03/20 10:36:24;;;;;;;8.65;2.78;;;13.90;99.90;;;;;;5049271;28;20462;-57
2023/03/20 10:39:34;;;;;;;8.00;3.23;;;13.80;99.90;;;;;;5037491;28;20400;-59
2023/03/20 10:42:07;;;;;;;10.07;3.72;;;13.80;99.90;;;;;;5049804;28;20440;-57
2023/03/20 10:44:42;;;;;;;10.95;3.40;;;13.80;99.90;;;;;;5048579;28;20507;-56
2023/03/20 10:47:13;;;;;;;7.82;2.80;;;13.50;99.90;;;;;;5050102;28;20385;-57
2023/03/20 10:49:50;;;;;;;11.60;3.50;;;13.30;1.00;;;;;;5049137;28;20896;-58
2023/03/20 10:52:21;;;;;;;9.68;3.55;;;13.60;1.00;;;;;;5049938;28;20384;-58
2023/03/20 10:54:51;;;;;;;10.23;3.93;;;13.70;1.00;;;;;;5049520;28;20385;-57
2023/03/20 10:57:26;;;;;;;10.27;3.60;;;14.50;99.90;;;;;;5049514;28;20385;-58
2023/03/20 10:59:54;;;;;;;9.57;3.85;;;15.50;99.90;;;;;;5049721;28;20374;-58
2023/03/20 11:02:23;;;;;;;9.57;3.60;;;16.20;99.90;;;;;;5049452;28;20409;-58
2023/03/20 11:04:50;;;;;;;8.73;3.08;;;16.70;99.90;;;;;;5049399;28;20381;-58
2023/03/20 11:07:27;;;;;;;8.80;3.75;;;17.00;99.90;;;;;;5049192;28;20405;-58
2023/03/20 11:10:05;;;;;;;10.82;4.15;;;17.00;99.90;;;;;;5049006;28;20480;-61
2023/03/20 11:12:42;;;;;;;8.60;3.67;;;16.90;99.90;;;;;;5049111;28;20432;-58
2023/03/20 11:15:44;;;;;;;12.65;4.60;;;16.90;99.90;;;;;;5049350;28;20413;-60
2023/03/20 11:18:14;;;;;;;12.25;4.20;;;16.50;99.90;;;;;;4949073;28;20775;-59
2023/03/20 11:20:51;;;;;;;11.77;4.00;;;17.10;99.90;;;;;;5031903;28;20486;-58
2023/03/20 11:23:39;;;;;;;8.95;3.40;;;18.00;99.90;;;;;;5049895;28;20424;-59
2023/03/20 11:26:10;;;;;;;9.88;4.20;;;17.90;99.90;;;;;;5048756;28;20408;-58
2023/03/20 11:28:36;;;;;;;9.82;4.20;;;18.30;99.90;;;;;;5048086;28;20875;-59
2023/03/20 11:31:06;;;;;;;9.30;3.63;;;18.30;99.90;;;;;;5051396;28;20479;-58
2023/03/20 11:34:03;;;;;;;9.20;3.70;;;17.80;99.90;;;;;;5052207;28;20416;-58
2023/03/20 11:36:32;;;;;;;8.88;3.53;;;17.60;99.90;;;;;;5051510;28;20420;-59
2023/03/20 11:39:06;;;;;;;9.10;3.25;;;16.70;99.90;;;;;;5052670;28;20602;-58
2023/03/20 11:41:32;;;;;;;9.70;3.60;;;17.10;99.90;;;;;;5052227;28;20727;-58
2023/03/20 11:43:59;;;;;;;9.25;3.55;;;17.60;99.90;;;;;;5052855;28;20405;-58
2023/03/20 11:46:25;;;;;;;8.93;3.20;;;17.60;99.90;;;;;;5052275;28;20389;-64
2023/03/20 11:49:26;;;;;;;9.52;3.30;;;17.00;99.90;;;;;;5051676;28;20392;-58
2023/03/20 11:51:52;;;;;;;9.68;3.30;;;16.70;99.90;;;;;;5052787;28;20443;-58
2023/03/20 11:54:21;;;;;;;8.30;3.60;;;16.60;99.90;;;;;;5052854;28;20432;-59
2023/03/20 11:56:56;;;;;;;8.43;3.30;;;16.50;99.90;;;;;;5051690;28;20405;-59
2023/03/20 11:59:28;;;;;;;11.20;3.40;;;17.00;99.90;;;;;;5052310;28;20849;-59
2023/03/20 12:01:55;;;;;;;9.05;3.33;;;17.70;99.90;;;;;;5053088;28;20381;-57
2023/03/20 12:04:31;;;;;;;9.05;3.22;;;17.70;99.90;;;;;;5052522;28;20480;-57
2023/03/20 12:07:00;;;;;;;9.15;3.35;;;17.00;99.90;;;;;;5052451;28;20456;-57
2023/03/20 12:09:41;;;;;;;8.40;2.75;;;16.50;99.90;;;;;;5051703;28;20390;-63
2023/03/20 12:12:14;;;;;;;8.60;3.53;;;16.50;99.90;;;;;;5052246;28;20374;-58
2023/03/20 12:14:52;;;;;;;8.10;3.38;;;16.40;99.90;;;;;;5052100;28;20422;-58
2023/03/20 12:17:41;;;;;;;9.25;3.28;;;16.30;99.90;;;;;;5052573;28;20467;-58
2023/03/20 12:20:27;;;;;;;8.50;3.00;;;16.60;99.90;;;;;;5052370;28;20420;-58
2023/03/20 12:23:08;;;;;;;10.93;3.15;;;16.80;99.90;;;;;;5052447;28;20392;-58
2023/03/20 12:25:42;;;;;;;9.70;3.03;;;17.00;99.90;;;;;;5051378;28;20464;-58
2023/03/20 12:28:24;;;;;;;8.55;3.28;;;17.10;99.90;;;;;;5051981;28;20437;-58
2023/03/20 12:31:17;;;;;;;8.52;2.78;;;17.30;99.90;;;;;;5051477;28;20382;-58
2023/03/20 12:33:42;;;;;;;10.43;3.45;;;17.30;99.90;;;;;;5051396;28;20778;-58
2023/03/20 12:36:15;;;;;;;8.00;2.78;;;17.40;99.90;;;;;;5051898;28;20444;-58
2023/03/20 12:38:42;;;;;;;8.50;2.83;;;17.40;99.90;;;;;;5050894;28;20905;-58
2023/03/20 12:41:25;;;;;;;9.30;3.40;;;17.30;99.90;;;;;;5051881;28;20386;-58
2023/03/20 12:43:59;;;;;;;8.20;2.92;;;17.00;99.90;;;;;;5050759;28;20405;-58
2023/03/20 12:47:06;;;;;;;9.45;2.50;;;16.30;99.90;;;;;;5051462;28;20386;-63
2023/03/20 12:49:57;;;;;;;7.78;2.70;;;15.90;99.90;;;;;;5050795;28;20382;-58
2023/03/20 12:52:45;;;;;;;6.90;2.60;;;15.60;99.90;;;;;;5051999;28;20385;-57
2023/03/20 12:55:48;;;;;;;8.80;2.88;;;15.60;99.90;;;;;;5051502;28;20465;-56
2023/03/20 12:58:18;;;;;;;8.20;2.83;;;15.20;99.90;;;;;;5050909;28;20443;-58
2023/03/20 13:01:02;;;;;;;7.28;2.55;;;15.60;99.90;;;;;;5055774;28;20461;-57
2023/03/20 13:03:31;;;;;;;6.82;2.13;;;16.10;99.90;;;;;;5051894;28;20888;-61
2023/03/20 13:06:06;;;;;;;8.77;2.40;;;16.40;99.90;;;;;;5051326;28;20396;-57
2023/03/20 13:09:07;;;;;;;6.97;2.40;;;15.90;99.90;;;;;;5048760;28;20410;-57
2023/03/20 13:11:55;;;;;;;9.20;2.63;;;15.40;99.90;;;;;;5032773;28;20403;-58
2023/03/20 13:14:23;;;;;;;8.52;2.60;;;15.40;99.90;;;;;;5058511;28;20395;-58